Time;durP1;ratioP1;P1;durP2;ratioP2;P2;SDS_P1;SDS_P2;PMS_P1;PMS_P2;Temp;Humidity;BMP_temperature;BMP_pressure;BME280_temperature;BME280_humidity;BME280_pressure;Samples;Min_cycle;Max_cycle;Signal;HPM_P1;HPM_P2
2023/08/05 00:01:18;;;;;;;9.80;8.90;;;;;;;24.04;82.63;96760.57;110260;1242;71489;-71
2023/08/05 00:03:48;;;;;;;9.30;8.30;;;;;;;24.05;82.51;96753.47;110202;1241;68477;-70
2023/08/05 00:06:19;;;;;;;10.80;9.60;;;;;;;24.09;81.82;96749.63;110218;1241;69289;-69
2023/08/05 00:08:49;;;;;;;9.90;8.80;;;;;;;24.10;81.46;96746.87;110218;1247;59747;-70
2023/08/05 00:11:19;;;;;;;9.60;8.60;;;;;;;24.01;81.71;96742.65;110255;1242;59623;-71
2023/08/05 00:13:48;;;;;;;;;;;;;;;23.91;82.10;96745.22;110254;1241;71988;-70
2023/08/05 00:16:18;;;;;;;9.70;8.70;;;;;;;23.86;82.29;96742.70;110233;1242;69199;-69
2023/08/05 00:18:49;;;;;;;9.60;8.60;;;;;;;23.88;82.27;96742.57;110223;1242;68495;-70
2023/08/05 00:21:20;;;;;;;9.70;8.80;;;;;;;23.97;81.16;96740.02;110244;1242;59737;-70
2023/08/05 00:23:50;;;;;;;9.00;8.10;;;;;;;23.97;80.62;96737.85;110251;1241;59726;-70
2023/08/05 00:26:20;;;;;;;9.00;8.10;;;;;;;23.96;80.83;96734.95;110233;1242;71270;-70
2023/08/05 00:28:51;;;;;;;9.20;8.30;;;;;;;23.95;80.31;96730.84;110219;1242;69208;-70
2023/08/05 00:31:25;;;;;;;9.10;8.10;;;;;;;23.95;79.98;96726.62;110095;1244;69276;-70
2023/08/05 00:33:58;;;;;;;9.60;8.60;;;;;;;23.94;79.70;96729.23;110235;1242;59725;-70
2023/08/05 00:36:31;;;;;;;9.10;8.20;;;;;;;23.92;79.23;96728.92;110228;1242;59640;-68
2023/08/05 00:39:02;;;;;;;8.80;7.90;;;;;;;23.92;79.55;96723.63;110158;1244;71455;-70
2023/08/05 00:41:36;;;;;;;8.30;7.50;;;;;;;23.91;79.17;96718.21;110233;1240;68839;-69
2023/08/05 00:44:07;;;;;;;8.80;7.90;;;;;;;23.90;78.67;96714.02;110245;1241;69099;-69
2023/08/05 00:46:39;;;;;;;8.60;7.80;;;;;;;23.88;78.82;96708.27;110343;1242;59667;-72
2023/08/05 00:49:08;;;;;;;;;;;;;;;23.71;79.40;96705.98;110302;1242;59692;-71
2023/08/05 00:51:41;;;;;;;8.80;7.90;;;;;;;23.66;79.52;96701.45;110201;1240;71618;-69
2023/08/05 00:54:15;;;;;;;9.20;8.20;;;;;;;23.73;78.92;96701.26;110232;1241;68473;-68
2023/08/05 00:56:46;;;;;;;8.10;7.40;;;;;;;23.78;78.59;96693.42;110232;1241;69331;-70
2023/08/05 00:59:18;;;;;;;7.70;7.00;;;;;;;23.82;77.84;96689.06;110232;1243;59779;-69
2023/08/05 01:01:48;;;;;;;7.70;6.90;;;;;;;23.85;77.25;96686.27;110260;1242;59608;-68
2023/08/05 01:04:21;;;;;;;8.70;7.80;;;;;;;23.91;77.07;96679.41;110290;1241;71213;-69
2023/08/05 01:06:56;;;;;;;8.30;7.00;;;;;;;23.96;76.65;96678.28;110225;1241;68410;-70
2023/08/05 01:09:29;;;;;;;8.50;7.70;;;;;;;23.97;75.93;96675.35;110354;1240;69322;-70
2023/08/05 01:12:03;;;;;;;8.60;7.80;;;;;;;24.00;75.95;96676.00;110240;1241;59680;-70
2023/08/05 01:14:35;;;;;;;8.60;7.80;;;;;;;24.02;75.66;96674.88;110222;1242;59641;-69
2023/08/05 01:17:08;;;;;;;8.30;7.40;;;;;;;24.02;75.35;96676.64;110207;1240;71871;-69
2023/08/05 01:19:42;;;;;;;10.20;7.30;;;;;;;24.01;75.19;96675.38;110211;1242;69333;-70
2023/08/05 01:22:30;;;;;;;8.00;7.30;;;;;;;24.00;74.85;96674.16;110252;1241;69369;-71
2023/08/05 01:25:15;;;;;;;11.00;7.80;;;;;;;23.99;74.70;96670.20;110189;1245;59670;-70
2023/08/05 01:27:46;;;;;;;8.30;7.50;;;;;;;23.98;73.74;96664.54;110256;1242;59666;-70
2023/08/05 01:30:18;;;;;;;9.10;8.30;;;;;;;24.00;73.63;96660.14;110248;1242;71446;-70
2023/08/05 01:32:55;;;;;;;8.60;7.60;;;;;;;24.01;73.35;96658.41;110220;1242;68762;-69
2023/08/05 01:35:29;;;;;;;7.50;6.80;;;;;;;24.01;73.80;96658.09;110233;1240;68376;-69
2023/08/05 01:38:06;;;;;;;9.00;7.60;;;;;;;23.98;73.45;96658.71;110273;1246;60220;-70
2023/08/05 01:40:41;;;;;;;8.40;7.40;;;;;;;23.96;73.47;96654.75;110252;1242;59659;-69
2023/08/05 01:43:14;;;;;;;8.50;7.70;;;;;;;23.94;73.46;96654.71;110246;1241;71447;-68
2023/08/05 01:45:50;;;;;;;8.40;7.60;;;;;;;23.91;73.31;96654.86;110228;1242;67600;-69
2023/08/05 01:48:21;;;;;;;7.80;7.00;;;;;;;23.88;73.27;96654.05;110192;1242;69123;-70
2023/08/05 01:50:53;;;;;;;8.10;7.10;;;;;;;23.85;73.19;96654.81;110172;1241;59744;-70
2023/08/05 01:53:26;;;;;;;8.60;7.70;;;;;;;23.82;73.14;96656.05;110215;1242;59685;-70
2023/08/05 01:56:03;;;;;;;8.30;7.50;;;;;;;23.79;72.87;96658.61;110203;1242;71389;-70
2023/08/05 01:58:36;;;;;;;8.60;7.70;;;;;;;23.79;72.85;96657.52;110201;1243;69268;-69
2023/08/05 02:01:09;;;;;;;7.70;6.80;;;;;;;23.78;72.38;96655.33;110158;1242;69301;-69
2023/08/05 02:03:40;;;;;;;7.80;7.00;;;;;;;23.80;72.45;96650.69;110208;1242;59740;-69
2023/08/05 02:06:14;;;;;;;8.00;7.20;;;;;;;23.80;72.19;96651.36;110191;1242;59630;-70
2023/08/05 02:08:45;;;;;;;8.00;7.20;;;;;;;23.79;72.14;96648.15;110197;1240;71411;-70
2023/08/05 02:11:17;;;;;;;7.90;7.10;;;;;;;23.75;72.24;96645.83;110268;1241;68966;-68
2023/08/05 02:13:47;;;;;;;8.10;7.10;;;;;;;23.70;72.80;96649.67;110132;1243;69836;-69
2023/08/05 02:16:20;;;;;;;8.40;7.60;;;;;;;23.66;72.21;96642.50;110193;1241;59678;-68
2023/08/05 02:18:53;;;;;;;7.60;6.90;;;;;;;23.66;71.94;96642.29;110264;1242;59693;-69
2023/08/05 02:21:25;;;;;;;8.30;7.00;;;;;;;23.67;71.74;96644.55;110237;1241;71506;-68
2023/08/05 02:23:59;;;;;;;8.40;7.40;;;;;;;23.65;71.61;96641.94;110234;1242;69277;-69
2023/08/05 02:26:31;;;;;;;8.60;7.30;;;;;;;23.62;72.27;96637.16;110158;1240;68514;-71
2023/08/05 02:29:05;;;;;;;7.10;6.50;;;;;;;23.55;72.17;96635.42;110231;1242;59749;-70
2023/08/05 02:31:37;;;;;;;7.90;7.10;;;;;;;23.50;72.18;96625.35;110227;1242;59694;-70
2023/08/05 02:34:12;;;;;;;9.10;7.30;;;;;;;23.48;71.87;96623.27;110203;1241;70453;-69
2023/08/05 02:36:44;;;;;;;8.10;7.30;;;;;;;23.46;71.75;96625.00;110220;1240;68787;-70
2023/08/05 02:39:16;;;;;;;7.50;6.80;;;;;;;23.44;71.86;96627.11;110237;1242;68444;-70
2023/08/05 02:41:47;;;;;;;7.50;6.80;;;;;;;23.40;71.67;96626.92;110321;1242;59704;-67
2023/08/05 02:44:19;;;;;;;7.90;7.10;;;;;;;23.37;71.89;96627.61;110264;1242;59640;-70
2023/08/05 02:46:51;;;;;;;8.60;7.80;;;;;;;23.38;71.34;96624.49;110223;1242;70261;-69
2023/08/05 02:49:25;;;;;;;8.00;7.20;;;;;;;23.39;71.14;96618.80;110107;1241;68769;-69
2023/08/05 02:51:59;;;;;;;8.00;7.20;;;;;;;23.43;70.83;96618.69;110127;1245;68442;-70
2023/08/05 02:54:33;;;;;;;8.50;7.60;;;;;;;23.46;70.60;96618.31;110199;1241;59698;-68
2023/08/05 02:57:04;;;;;;;8.40;7.20;;;;;;;23.48;70.45;96619.78;110132;1241;59725;-71
2023/08/05 02:59:35;;;;;;;8.70;7.90;;;;;;;23.50;69.86;96615.92;110187;1245;70038;-70
2023/08/05 03:02:08;;;;;;;15.30;11.00;;;;;;;23.54;69.54;96619.18;110161;1243;69189;-68
2023/08/05 03:04:38;;;;;;;12.80;10.10;;;;;;;23.61;69.12;96624.08;110228;1241;69862;-70
2023/08/05 03:07:10;;;;;;;17.50;10.60;;;;;;;23.67;69.03;96623.20;110075;1244;59669;-71
2023/08/05 03:09:40;;;;;;;16.90;11.30;;;;;;;23.68;68.85;96626.20;110176;1241;59698;-69
2023/08/05 03:12:12;;;;;;;15.50;10.80;;;;;;;23.68;69.05;96623.73;110139;1242;71614;-71
2023/08/05 03:14:45;;;;;;;15.70;10.30;;;;;;;23.66;68.93;96622.59;110193;1243;69852;-70
2023/08/05 03:17:17;;;;;;;12.40;10.00;;;;;;;23.63;68.99;96620.88;110154;1241;69217;-70
2023/08/05 03:19:52;;;;;;;11.60;9.10;;;;;;;23.60;69.17;96618.08;110209;1243;59707;-68
2023/08/05 03:22:23;;;;;;;10.10;8.20;;;;;;;23.59;68.46;96614.67;110150;1241;59696;-69
2023/08/05 03:24:55;;;;;;;9.80;8.70;;;;;;;23.63;68.79;96613.19;110130;1241;71561;-70
2023/08/05 03:27:26;;;;;;;10.70;8.70;;;;;;;23.61;69.46;96608.89;110070;1243;69637;-70
2023/08/05 03:29:56;;;;;;;9.70;8.20;;;;;;;23.57;68.63;96611.66;110123;1244;69317;-69
2023/08/05 03:32:26;;;;;;;8.80;7.90;;;;;;;23.55;68.84;96615.61;110139;1241;59749;-70
2023/08/05 03:34:56;;;;;;;10.30;8.30;;;;;;;23.55;69.57;96620.89;110158;1241;59712;-68
2023/08/05 03:37:27;;;;;;;8.40;7.50;;;;;;;23.52;70.47;96620.99;110126;1244;70744;-70
2023/08/05 03:39:57;;;;;;;9.30;8.10;;;;;;;23.48;70.97;96625.93;110176;1244;68479;-69
2023/08/05 03:42:27;;;;;;;9.10;7.30;;;;;;;23.43;71.45;96629.52;110162;1241;69060;-68
2023/08/05 03:44:59;;;;;;;8.60;7.50;;;;;;;23.44;70.26;96630.59;110201;1242;59693;-68
2023/08/05 03:47:30;;;;;;;8.10;7.30;;;;;;;23.49;70.60;96636.04;110229;1241;60129;-69
2023/08/05 03:50:01;;;;;;;9.70;7.90;;;;;;;23.54;70.72;96641.27;110171;1241;71068;-70
2023/08/05 03:52:32;;;;;;;8.80;7.50;;;;;;;23.61;70.48;96642.05;110235;1242;69646;-70
2023/08/05 03:55:04;;;;;;;8.90;8.00;;;;;;;23.68;70.66;96640.73;110151;1243;69163;-67
2023/08/05 03:57:36;;;;;;;9.10;7.60;;;;;;;23.72;70.60;96642.98;110206;1242;60197;-69
2023/08/05 04:00:11;;;;;;;7.90;7.10;;;;;;;23.77;70.46;96643.97;110201;1242;59738;-68
2023/08/05 04:02:44;;;;;;;8.30;7.40;;;;;;;23.83;70.02;96644.89;110226;1241;71974;-69
2023/08/05 04:05:14;;;;;;;8.80;6.90;;;;;;;23.90;68.15;96647.46;110182;1241;69118;-69
2023/08/05 04:07:46;;;;;;;7.80;7.10;;;;;;;24.00;68.73;96645.77;110086;1241;69923;-69
2023/08/05 04:10:21;;;;;;;7.90;6.60;;;;;;;24.07;69.75;96646.96;110182;1243;59725;-67
2023/08/05 04:12:52;;;;;;;8.40;7.50;;;;;;;24.14;68.10;96650.15;110183;1241;59681;-67
2023/08/05 04:15:27;;;;;;;7.00;6.30;;;;;;;24.22;68.65;96649.13;110132;1240;70713;-69
2023/08/05 04:17:59;;;;;;;7.10;6.40;;;;;;;24.30;69.15;96644.71;110196;1241;68809;-68
2023/08/05 04:20:31;;;;;;;7.40;6.70;;;;;;;24.38;69.49;96643.70;110223;1241;68540;-69
2023/08/05 04:23:01;;;;;;;7.40;6.70;;;;;;;24.48;70.33;96641.15;110181;1243;59757;-69
2023/08/05 04:25:34;;;;;;;7.70;6.90;;;;;;;24.64;69.87;96633.24;110114;1241;59754;-69
2023/08/05 04:28:04;;;;;;;7.70;7.00;;;;;;;24.80;69.97;96633.55;110219;1240;69714;-72
2023/08/05 04:30:34;;;;;;;7.00;6.40;;;;;;;24.99;67.00;96636.05;110163;1242;68557;-69
2023/08/05 04:33:05;;;;;;;6.90;6.20;;;;;;;25.15;66.83;96632.30;110150;1244;70251;-68
2023/08/05 04:35:35;;;;;;;8.50;6.60;;;;;;;25.29;66.66;96641.30;110122;1244;59772;-70
2023/08/05 04:38:06;;;;;;;6.50;5.90;;;;;;;25.41;65.80;96646.63;110217;1242;59705;-69
2023/08/05 04:40:36;;;;;;;6.90;6.30;;;;;;;25.52;63.87;96647.75;110169;1241;71377;-69
2023/08/05 04:43:06;;;;;;;7.40;6.20;;;;;;;25.60;64.33;96650.77;110158;1241;67811;-68
2023/08/05 04:45:35;;;;;;;6.50;5.90;;;;;;;25.71;64.57;96656.52;110128;1241;69369;-70
2023/08/05 04:48:06;;;;;;;6.30;5.50;;;;;;;25.78;64.00;96655.48;110164;1242;59734;-70
2023/08/05 04:50:38;;;;;;;6.30;5.70;;;;;;;25.86;63.98;96654.47;110145;1241;59742;-69
2023/08/05 04:53:08;;;;;;;6.20;5.60;;;;;;;25.89;64.20;96653.97;110151;1240;70447;-69
2023/08/05 04:55:40;;;;;;;7.10;6.40;;;;;;;25.95;62.70;96645.73;110245;1242;69245;-68
2023/08/05 04:58:11;;;;;;;7.00;6.30;;;;;;;26.03;62.10;96641.46;110199;1242;70226;-69
2023/08/05 05:00:40;;;;;;;7.40;6.60;;;;;;;26.15;61.87;96642.00;110230;1242;59685;-68
2023/08/05 05:03:11;;;;;;;7.40;6.30;;;;;;;26.34;60.94;96637.05;110258;1241;59694;-69
2023/08/05 05:05:42;;;;;;;7.90;7.10;;;;;;;26.52;59.71;96632.77;110240;1243;70836;-70
2023/08/05 05:08:11;;;;;;;7.70;7.00;;;;;;;26.68;60.18;96637.65;110103;1241;69236;-69
2023/08/05 05:10:46;;;;;;;6.70;6.00;;;;;;;26.79;59.75;96646.36;110153;1241;69573;-70
2023/08/05 05:13:16;;;;;;;9.00;6.10;;;;;;;26.95;59.68;96645.16;110142;1244;59708;-70
2023/08/05 05:15:48;;;;;;;6.80;5.80;;;;;;;27.18;58.33;96641.13;110214;1244;59686;-69
2023/08/05 05:18:17;;;;;;;6.20;5.60;;;;;;;27.50;59.01;96642.46;110169;1241;71888;-68
2023/08/05 05:20:50;;;;;;;6.60;5.80;;;;;;;27.77;56.53;96640.72;110259;1246;69209;-68
2023/08/05 05:23:19;;;;;;;7.20;5.90;;;;;;;28.02;55.83;96641.85;110120;1244;69271;-69
2023/08/05 05:25:49;;;;;;;5.90;5.30;;;;;;;28.26;54.66;96637.50;110227;1241;59696;-70
2023/08/05 05:28:19;;;;;;;6.30;5.70;;;;;;;28.47;52.96;96630.30;110378;1242;59663;-71
2023/08/05 05:30:48;;;;;;;5.70;5.20;;;;;;;28.56;52.19;96627.10;110195;1242;70632;-68
2023/08/05 05:33:18;;;;;;;7.10;5.40;;;;;;;28.90;52.32;96622.20;110219;1241;69661;-69
2023/08/05 05:35:50;;;;;;;6.00;5.30;;;;;;;29.17;50.70;96617.23;110274;1242;69267;-69
2023/08/05 05:38:19;;;;;;;6.20;5.60;;;;;;;29.45;50.47;96621.79;110283;1240;59696;-70
2023/08/05 05:40:48;;;;;;;5.50;5.00;;;;;;;29.71;49.99;96616.52;110268;1243;59697;-71
2023/08/05 05:43:18;;;;;;;6.00;5.50;;;;;;;30.02;49.98;96620.17;110287;1241;71928;-69
2023/08/05 05:45:51;;;;;;;6.60;5.00;;;;;;;30.28;48.12;96620.92;110262;1240;69396;-68
2023/08/05 05:48:21;;;;;;;5.20;4.60;;;;;;;30.51;48.93;96622.15;110273;1242;69852;-69
2023/08/05 05:50:53;;;;;;;7.30;5.10;;;;;;;30.74;47.07;96618.14;110160;1242;59786;-69
2023/08/05 05:53:23;;;;;;;5.40;4.90;;;;;;;30.97;46.87;96619.10;110136;1244;59678;-68
2023/08/05 05:55:53;;;;;;;4.70;4.30;;;;;;;31.06;45.11;96616.14;110130;1242;71360;-69
2023/08/05 05:58:23;;;;;;;5.40;4.90;;;;;;;31.17;44.95;96606.27;110233;1242;69181;-68
2023/08/05 06:00:55;;;;;;;5.50;4.80;;;;;;;31.17;43.33;96596.94;110194;1241;69346;-69
2023/08/05 06:03:25;;;;;;;5.60;4.50;;;;;;;31.13;44.14;96587.40;110212;1241;59682;-69
2023/08/05 06:05:58;;;;;;;5.00;4.50;;;;;;;31.32;44.53;96591.19;110261;1242;59628;-69
2023/08/05 06:08:27;;;;;;;4.90;4.40;;;;;;;31.45;43.65;96589.68;110109;1241;70416;-68
2023/08/05 06:11:03;;;;;;;5.20;4.70;;;;;;;31.54;42.43;96591.23;110239;1241;68856;-69
2023/08/05 06:13:32;;;;;;;4.70;4.10;;;;;;;31.59;42.10;96587.73;110177;1245;69902;-69
2023/08/05 06:16:01;;;;;;;4.80;4.40;;;;;;;31.62;41.81;96589.42;110291;1242;59636;-69
2023/08/05 06:18:30;;;;;;;5.50;4.60;;;;;;;31.59;41.65;96590.55;110166;1244;59699;-68
2023/08/05 06:21:00;;;;;;;4.20;3.80;;;;;;;31.79;42.02;96594.02;110179;1241;71977;-69
2023/08/05 06:23:29;;;;;;;4.70;4.20;;;;;;;32.13;41.94;96598.48;110202;1243;69800;-68
2023/08/05 06:25:58;;;;;;;4.30;3.90;;;;;;;32.36;41.01;96600.23;110128;1244;69913;-67
2023/08/05 06:28:28;;;;;;;4.60;4.20;;;;;;;32.59;40.28;96592.68;110219;1242;59695;-68
2023/08/05 06:30:57;;;;;;;4.40;4.00;;;;;;;32.76;39.37;96589.50;110184;1242;59672;-69
2023/08/05 06:33:26;;;;;;;4.50;4.10;;;;;;;32.85;39.13;96587.13;110196;1242;71367;-69
2023/08/05 06:35:55;;;;;;;4.50;3.80;;;;;;;32.91;39.04;96583.83;110202;1244;68298;-66
2023/08/05 06:38:26;;;;;;;4.30;3.90;;;;;;;33.19;38.73;96577.48;110170;1242;69866;-69
2023/08/05 06:40:55;;;;;;;4.30;3.90;;;;;;;33.21;38.46;96578.70;110122;1241;59748;-68
2023/08/05 06:43:24;;;;;;;4.60;3.90;;;;;;;33.23;38.45;96584.12;110288;1243;59647;-69
2023/08/05 06:45:54;;;;;;;4.10;3.70;;;;;;;33.47;38.60;96582.30;110213;1241;71365;-67
2023/08/05 06:48:24;;;;;;;4.20;3.50;;;;;;;33.84;38.54;96590.41;110162;1244;69340;-68
2023/08/05 06:50:53;;;;;;;5.10;3.70;;;;;;;34.06;37.69;96591.45;110146;1244;69259;-68
2023/08/05 06:53:22;;;;;;;5.50;3.60;;;;;;;34.09;36.44;96588.65;110216;1242;59681;-67
2023/08/05 06:56:04;;;;;;;4.10;3.70;;;;;;;34.07;35.90;96589.34;110252;1244;59686;-69
2023/08/05 06:58:33;;;;;;;5.70;3.80;;;;;;;34.09;36.69;96583.40;110150;1244;70800;-67
2023/08/05 07:01:02;;;;;;;4.90;3.70;;;;;;;34.30;37.51;96585.41;110134;1241;69051;-68
2023/08/05 07:03:31;;;;;;;3.70;3.40;;;;;;;34.45;36.59;96584.48;110147;1243;68712;-69
2023/08/05 07:06:00;;;;;;;4.10;3.60;;;;;;;34.82;36.10;96576.69;110174;1243;59743;-67
2023/08/05 07:08:29;;;;;;;4.90;4.10;;;;;;;35.06;34.96;96577.16;110095;1245;59636;-69
2023/08/05 07:10:59;;;;;;;5.30;3.60;;;;;;;34.92;33.58;96572.46;110127;1243;71500;-68
2023/08/05 07:13:28;;;;;;;3.70;3.30;;;;;;;34.83;34.12;96571.13;110178;1245;68450;-66
2023/08/05 07:15:59;;;;;;;4.50;3.70;;;;;;;34.62;33.90;96580.50;110065;1245;69861;-67
2023/08/05 07:18:29;;;;;;;4.30;3.20;;;;;;;34.53;34.33;96575.10;110124;1243;59715;-67
2023/08/05 07:20:58;;;;;;;3.70;3.40;;;;;;;34.75;34.91;96573.60;110144;1243;59811;-67
2023/08/05 07:23:28;;;;;;;3.90;3.40;;;;;;;34.94;34.72;96568.35;110143;1241;71744;-69
2023/08/05 07:26:01;;;;;;;3.90;3.50;;;;;;;34.91;34.24;96570.78;110142;1241;69438;-66
2023/08/05 07:28:31;;;;;;;4.20;3.80;;;;;;;34.88;33.80;96568.84;110168;1241;70328;-68
2023/08/05 07:31:04;;;;;;;3.50;3.20;;;;;;;34.95;33.77;96573.63;110196;1241;59683;-66
2023/08/05 07:33:33;;;;;;;3.80;3.50;;;;;;;34.81;33.51;96569.69;110153;1243;59705;-68
2023/08/05 07:36:15;;;;;;;4.40;3.50;;;;;;;34.68;33.92;96570.03;110135;1241;71816;-67
2023/08/05 07:38:47;;;;;;;4.20;3.70;;;;;;;34.56;34.21;96574.60;110151;1244;69086;-67
2023/08/05 07:41:16;;;;;;;3.90;3.50;;;;;;;34.51;34.04;96572.85;110053;1245;69257;-67
2023/08/05 07:43:47;;;;;;;3.80;3.20;;;;;;;34.44;33.95;96573.60;110111;1243;59754;-69
2023/08/05 07:46:16;;;;;;;3.80;3.40;;;;;;;34.41;33.73;96570.51;110135;1241;59744;-67
2023/08/05 07:48:49;;;;;;;4.00;3.60;;;;;;;34.33;33.82;96571.83;110117;1241;70909;-67
2023/08/05 07:51:19;;;;;;;3.80;3.30;;;;;;;34.40;34.53;96570.86;110166;1243;69303;-67
2023/08/05 07:53:48;;;;;;;4.30;3.50;;;;;;;34.31;33.51;96567.55;110113;1245;69266;-65
2023/08/05 07:56:18;;;;;;;4.10;3.00;;;;;;;34.18;33.29;96566.20;110117;1241;59686;-67
2023/08/05 07:58:56;;;;;;;4.30;3.30;;;;;;;33.95;32.61;96563.41;110237;1241;59753;-69
2023/08/05 08:01:26;;;;;;;4.30;3.00;;;;;;;33.84;32.68;96567.05;110210;1244;72022;-69
2023/08/05 08:04:01;;;;;;;4.20;3.00;;;;;;;33.70;32.94;96561.88;110164;1243;69244;-68
2023/08/05 08:06:32;;;;;;;5.00;3.20;;;;;;;33.69;33.27;96559.77;110192;1245;69269;-68
2023/08/05 08:09:01;;;;;;;3.20;2.80;;;;;;;33.80;33.15;96565.17;110188;1245;59737;-69
2023/08/05 08:11:30;;;;;;;4.40;3.00;;;;;;;33.81;33.03;96562.35;110180;1243;59678;-66
2023/08/05 08:14:00;;;;;;;3.40;2.90;;;;;;;33.93;33.03;96563.59;110132;1244;70653;-68
2023/08/05 08:16:29;;;;;;;3.80;2.90;;;;;;;33.82;32.60;96558.14;110162;1244;69216;-68
2023/08/05 08:18:59;;;;;;;5.00;3.30;;;;;;;33.63;32.85;96558.81;110148;1245;69156;-67
2023/08/05 08:21:28;;;;;;;4.00;2.80;;;;;;;33.81;33.51;96561.27;110108;1241;59756;-68
2023/08/05 08:23:57;;;;;;;3.00;2.50;;;;;;;34.08;33.46;96565.34;110170;1241;59706;-66
2023/08/05 08:26:26;;;;;;;4.90;3.10;;;;;;;34.33;32.47;96562.98;110169;1241;71394;-67
2023/08/05 08:28:55;;;;;;;3.00;2.70;;;;;;;34.37;32.29;96566.30;110163;1244;69245;-66
2023/08/05 08:31:29;;;;;;;3.20;2.80;;;;;;;34.44;32.16;96568.77;110142;1244;69680;-67
2023/08/05 08:33:58;;;;;;;3.00;2.50;;;;;;;34.64;32.18;96563.77;110129;1243;59747;-66
2023/08/05 08:36:27;;;;;;;3.80;2.50;;;;;;;34.73;32.56;96560.91;110113;1244;59646;-67
2023/08/05 08:38:57;;;;;;;4.70;2.60;;;;;;;34.95;32.04;96559.03;110157;1241;71975;-67
2023/08/05 08:41:27;;;;;;;3.90;2.70;;;;;;;35.10;31.34;96560.88;110149;1245;69845;-65
2023/08/05 08:43:57;;;;;;;3.80;2.40;;;;;;;35.19;30.76;96564.45;110138;1241;69745;-66
2023/08/05 08:46:27;;;;;;;3.40;2.30;;;;;;;35.26;29.71;96561.17;110158;1244;59717;-67
2023/08/05 08:48:56;;;;;;;3.60;2.20;;;;;;;35.28;30.07;96558.15;110172;1241;59636;-69
2023/08/05 08:51:26;;;;;;;3.30;2.70;;;;;;;35.26;29.86;96560.23;110179;1244;72042;-66
2023/08/05 08:53:56;;;;;;;2.30;2.10;;;;;;;35.23;30.01;96557.23;110139;1245;69771;-68
2023/08/05 08:56:26;;;;;;;4.50;2.00;;;;;;;35.10;30.37;96554.41;110128;1241;69313;-67
2023/08/05 08:58:55;;;;;;;4.10;2.20;;;;;;;35.42;29.73;96552.55;110174;1241;59780;-67
2023/08/05 09:01:25;;;;;;;2.80;2.10;;;;;;;35.45;29.71;96562.35;110143;1245;59783;-68
2023/08/05 09:03:56;;;;;;;3.60;2.10;;;;;;;35.59;29.52;96559.98;110166;1243;71949;-67
2023/08/05 09:06:26;;;;;;;2.60;2.00;;;;;;;35.81;29.80;96562.75;110123;1243;68679;-68
2023/08/05 09:08:55;;;;;;;2.40;2.00;;;;;;;36.00;29.34;96552.83;110162;1248;69868;-67
2023/08/05 09:11:24;;;;;;;4.30;2.10;;;;;;;35.98;28.97;96552.36;110164;1242;59760;-67
2023/08/05 09:13:53;;;;;;;2.80;1.90;;;;;;;35.96;29.35;96554.45;110138;1244;59808;-67
2023/08/05 09:16:24;;;;;;;3.20;1.70;;;;;;;36.11;29.37;96555.39;110124;1241;71757;-68
2023/08/05 09:18:54;;;;;;;2.90;1.90;;;;;;;36.11;28.90;96557.83;110136;1245;68497;-67
2023/08/05 09:21:28;;;;;;;4.80;2.00;;;;;;;35.94;28.88;96549.85;110141;1243;69694;-66
2023/08/05 09:23:57;;;;;;;4.90;2.00;;;;;;;35.98;29.21;96542.73;110109;1243;59658;-66
2023/08/05 09:26:31;;;;;;;4.10;1.90;;;;;;;36.10;29.18;96538.31;109726;1243;544864;-66
2023/08/05 09:29:04;;;;;;;3.20;1.90;;;;;;;35.92;28.32;96524.83;110150;1241;71313;-68
2023/08/05 09:31:34;;;;;;;2.60;1.90;;;;;;;35.73;27.50;96526.55;110152;1245;69081;-68
2023/08/05 09:34:04;;;;;;;2.70;1.50;;;;;;;35.60;28.27;96528.44;110122;1244;68694;-68
2023/08/05 09:36:33;;;;;;;2.50;1.70;;;;;;;35.54;28.12;96527.91;110136;1241;59746;-66
2023/08/05 09:39:10;;;;;;;4.10;1.90;;;;;;;35.37;27.21;96522.25;110150;1241;59759;-66
2023/08/05 09:41:41;;;;;;;1.70;1.40;;;;;;;35.32;28.02;96519.05;110137;1243;71354;-67
2023/08/05 09:44:12;;;;;;;2.80;1.40;;;;;;;35.43;27.91;96522.88;110117;1245;69135;-67
2023/08/05 09:46:41;;;;;;;3.50;1.70;;;;;;;35.63;27.78;96516.76;110085;1241;69651;-66
2023/08/05 09:49:14;;;;;;;4.40;1.50;;;;;;;35.80;27.47;96515.64;110091;1245;59672;-68
2023/08/05 09:51:49;;;;;;;2.60;1.60;;;;;;;35.87;27.52;96520.05;110232;1242;59695;-66
2023/08/05 09:54:30;;;;;;;2.60;1.60;;;;;;;35.87;27.16;96524.84;110140;1241;71281;-66
2023/08/05 09:57:00;;;;;;;2.50;1.40;;;;;;;36.19;27.02;96522.45;110234;1242;69815;-69
2023/08/05 09:59:29;;;;;;;1.70;1.30;;;;;;;36.41;26.61;96521.54;110196;1244;69137;-67
2023/08/05 10:02:00;;;;;;;1.90;1.50;;;;;;;36.25;26.01;96521.20;110154;1243;59718;-66
2023/08/05 10:04:30;;;;;;;6.20;1.80;;;;;;;36.49;26.08;96516.91;110200;1242;59747;-67
2023/08/05 10:07:01;;;;;;;2.50;1.40;;;;;;;36.45;25.43;96520.21;110197;1243;72339;-68
2023/08/05 10:09:30;;;;;;;2.90;1.40;;;;;;;36.36;25.75;96524.50;110188;1242;69232;-67
2023/08/05 10:12:02;;;;;;;3.20;1.50;;;;;;;36.32;25.70;96521.52;110186;1241;69347;-67
2023/08/05 10:14:31;;;;;;;1.40;1.20;;;;;;;36.43;25.85;96523.73;110172;1241;59710;-69
2023/08/05 10:17:02;;;;;;;2.00;1.40;;;;;;;36.54;25.53;96520.90;110277;1242;59738;-68
2023/08/05 10:19:31;;;;;;;3.60;1.50;;;;;;;36.71;25.69;96524.18;110211;1241;71292;-68
2023/08/05 10:22:09;;;;;;;1.80;1.30;;;;;;;36.93;25.23;96524.48;110129;1242;69829;-66
2023/08/05 10:24:59;;;;;;;1.70;1.20;;;;;;;37.08;24.93;96520.49;110270;1241;69624;-67
2023/08/05 10:27:43;;;;;;;2.10;1.40;;;;;;;37.20;25.43;96512.91;110393;1241;59678;-69
2023/08/05 10:30:16;;;;;;;1.70;1.30;;;;;;;37.25;25.04;96516.34;110229;1242;59741;-69
2023/08/05 10:32:49;;;;;;;1.70;1.10;;;;;;;37.05;24.47;96514.11;110259;1241;72016;-67
2023/08/05 10:35:31;;;;;;;1.90;1.20;;;;;;;36.93;24.68;96509.77;110211;1242;69749;-67
2023/08/05 10:38:10;;;;;;;2.30;1.40;;;;;;;37.03;24.40;96508.88;110159;1241;69191;-68
2023/08/05 10:41:04;;;;;;;2.20;1.30;;;;;;;37.09;24.25;96505.98;110219;1242;59779;-67
2023/08/05 10:43:34;;;;;;;2.80;1.60;;;;;;;37.21;23.65;96493.34;110254;1242;59663;-66
2023/08/05 10:46:03;;;;;;;5.10;1.30;;;;;;;37.21;23.54;96495.94;110147;1242;70837;-67
2023/08/05 10:48:36;;;;;;;2.40;1.40;;;;;;;36.99;23.03;96495.34;110186;1242;69518;-68
2023/08/05 10:51:12;;;;;;;2.00;1.00;;;;;;;36.95;23.36;96486.06;110210;1240;69281;-69
2023/08/05 10:53:59;;;;;;;3.30;1.50;;;;;;;36.90;22.77;96480.42;110184;1242;59738;-67
2023/08/05 10:56:32;;;;;;;2.70;1.40;;;;;;;36.65;22.21;96479.65;110193;1242;59673;-67
2023/08/05 10:59:06;;;;;;;3.60;1.40;;;;;;;36.40;22.72;96478.36;110199;1240;71839;-66
2023/08/05 11:02:21;;;;;;;2.30;1.60;;;;;;;36.33;22.73;96472.14;110212;1242;69720;-67
2023/08/05 11:05:04;;;;;;;3.40;1.30;;;;;;;36.23;22.43;96462.69;109998;1241;68527;-68
2023/08/05 11:07:40;;;;;;;6.40;1.40;;;;;;;36.08;22.44;96470.13;110209;1242;59748;-68
2023/08/05 11:10:10;;;;;;;3.10;1.60;;;;;;;35.96;22.80;96470.88;110175;1242;59630;-67
2023/08/05 11:12:40;;;;;;;3.20;1.50;;;;;;;35.95;22.92;96470.23;110186;1242;70789;-66
2023/08/05 11:15:10;;;;;;;2.40;1.30;;;;;;;36.04;23.46;96471.83;110139;1240;68525;-67
2023/08/05 11:17:55;;;;;;;2.40;1.40;;;;;;;36.13;22.79;96468.42;110190;1242;69207;-69
2023/08/05 11:20:31;;;;;;;3.50;1.40;;;;;;;36.19;22.76;96463.70;110158;1242;59741;-66
2023/08/05 11:23:01;;;;;;;2.10;1.40;;;;;;;36.31;22.79;96469.90;110237;1240;59743;-67
2023/08/05 11:25:30;;;;;;;3.30;1.80;;;;;;;36.27;22.34;96461.48;110229;1241;71980;-68
2023/08/05 11:27:59;;;;;;;3.50;1.60;;;;;;;36.35;22.77;96464.87;110221;1247;69069;-68
2023/08/05 11:30:28;;;;;;;3.00;1.40;;;;;;;36.45;23.08;96460.67;110167;1247;69839;-68
2023/08/05 11:32:58;;;;;;;2.50;1.60;;;;;;;36.57;23.00;96463.97;110169;1241;59741;-66
2023/08/05 11:35:27;;;;;;;3.60;1.80;;;;;;;36.45;22.51;96460.39;110151;1241;59702;-69
2023/08/05 11:37:57;;;;;;;2.60;1.50;;;;;;;36.31;22.14;96450.36;110097;1240;71411;-66
2023/08/05 11:40:26;;;;;;;2.90;1.70;;;;;;;35.97;22.42;96451.98;110157;1242;69825;-68
2023/08/05 11:42:55;;;;;;;2.80;1.60;;;;;;;35.83;22.71;96449.48;110165;1242;69867;-66
2023/08/05 11:45:25;;;;;;;3.30;1.80;;;;;;;35.74;23.26;96445.00;110160;1242;59692;-68